sensor_id;sensor_type;location;lat;lon;timestamp;pressure;altitude;pressure_sealevel;temperature;humidity
12219;BME280;6172;42.646;23.344;2024-03-25T00:00:29;93374.47;;;2.53;100.00
12219;BME280;6172;42.646;23.344;2024-03-25T00:03:01;93373.00;;;2.45;100.00
12219;BME280;6172;42.646;23.344;2024-03-25T00:05:30;93369.53;;;2.44;100.00
12219;BME280;6172;42.646;23.344;2024-03-25T00:07:57;93361.13;;;2.39;100.00
12219;BME280;6172;42.646;23.344;2024-03-25T00:10:25;93370.00;;;2.32;100.00
12219;BME280;6172;42.646;23.344;2024-03-25T00:12:52;93363.16;;;2.21;100.00
12219;BME280;6172;42.646;23.344;2024-03-25T00:15:21;93360.50;;;2.10;100.00
12219;BME280;6172;42.646;23.344;2024-03-25T00:17:47;93349.34;;;2.19;100.00
12219;BME280;6172;42.646;23.344;2024-03-25T00:20:15;93352.34;;;2.28;100.00
12219;BME280;6172;42.646;23.344;2024-03-25T00:22:42;93354.25;;;2.31;100.00
12219;BME280;6172;42.646;23.344;2024-03-25T00:25:22;93352.31;;;2.35;100.00
12219;BME280;6172;42.646;23.344;2024-03-25T00:27:48;93358.16;;;2.19;100.00
12219;BME280;6172;42.646;23.344;2024-03-25T00:30:35;93348.09;;;2.30;100.00
12219;BME280;6172;42.646;23.344;2024-03-25T00:33:01;93346.59;;;2.29;100.00
12219;BME280;6172;42.646;23.344;2024-03-25T00:35:27;93342.00;;;2.23;100.00
12219;BME280;6172;42.646;23.344;2024-03-25T00:37:53;93342.34;;;2.28;100.00
12219;BME280;6172;42.646;23.344;2024-03-25T00:40:23;93346.94;;;2.31;100.00
12219;BME280;6172;42.646;23.344;2024-03-25T00:42:55;93336.22;;;2.28;100.00
12219;BME280;6172;42.646;23.344;2024-03-25T00:45:27;93339.25;;;2.33;100.00
12219;BME280;6172;42.646;23.344;2024-03-25T00:47:57;93339.22;;;2.40;100.00
12219;BME280;6172;42.646;23.344;2024-03-25T00:50:28;93344.91;;;2.49;100.00
12219;BME280;6172;42.646;23.344;2024-03-25T00:52:57;93345.66;;;2.53;100.00
12219;BME280;6172;42.646;23.344;2024-03-25T00:55:29;93343.28;;;2.62;100.00
12219;BME280;6172;42.646;23.344;2024-03-25T00:57:56;93340.91;;;2.71;100.00
12219;BME280;6172;42.646;23.344;2024-03-25T01:00:24;93340.16;;;2.67;100.00
12219;BME280;6172;42.646;23.344;2024-03-25T01:02:50;93332.09;;;2.67;100.00
12219;BME280;6172;42.646;23.344;2024-03-25T01:05:19;93334.41;;;2.69;100.00
12219;BME280;6172;42.646;23.344;2024-03-25T01:07:44;93342.09;;;2.67;100.00
12219;BME280;6172;42.646;23.344;2024-03-25T01:10:11;93332.84;;;2.71;100.00
12219;BME280;6172;42.646;23.344;2024-03-25T01:12:39;93319.75;;;2.73;100.00
12219;BME280;6172;42.646;23.344;2024-03-25T01:15:20;93310.53;;;2.74;100.00
12219;BME280;6172;42.646;23.344;2024-03-25T01:17:50;93303.09;;;2.89;100.00
12219;BME280;6172;42.646;23.344;2024-03-25T01:20:16;93299.53;;;3.02;100.00
12219;BME280;6172;42.646;23.344;2024-03-25T01:22:48;93296.50;;;2.97;100.00
12219;BME280;6172;42.646;23.344;2024-03-25T01:25:17;93287.75;;;2.86;100.00
12219;BME280;6172;42.646;23.344;2024-03-25T01:27:47;93306.34;;;3.10;100.00
12219;BME280;6172;42.646;23.344;2024-03-25T01:30:14;93307.91;;;3.08;100.00
12219;BME280;6172;42.646;23.344;2024-03-25T01:32:41;93310.63;;;3.04;100.00
12219;BME280;6172;42.646;23.344;2024-03-25T01:35:15;93307.94;;;3.04;100.00
12219;BME280;6172;42.646;23.344;2024-03-25T01:37:42;93310.25;;;3.06;100.00
12219;BME280;6172;42.646;23.344;2024-03-25T01:40:11;93303.97;;;3.16;100.00
12219;BME280;6172;42.646;23.344;2024-03-25T01:42:42;93308.09;;;3.27;100.00
12219;BME280;6172;42.646;23.344;2024-03-25T01:45:10;93300.41;;;3.29;100.00
12219;BME280;6172;42.646;23.344;2024-03-25T01:47:40;93302.00;;;3.23;100.00
12219;BME280;6172;42.646;23.344;2024-03-25T01:50:07;93304.97;;;3.33;100.00
12219;BME280;6172;42.646;23.344;2024-03-25T01:52:39;93294.50;;;3.42;100.00
12219;BME280;6172;42.646;23.344;2024-03-25T01:55:15;93297.91;;;3.46;100.00
12219;BME280;6172;42.646;23.344;2024-03-25T01:57:45;93304.41;;;3.48;100.00
12219;BME280;6172;42.646;23.344;2024-03-25T02:00:11;93301.69;;;3.52;100.00
12219;BME280;6172;42.646;23.344;2024-03-25T02:02:40;93316.97;;;3.62;100.00
12219;BME280;6172;42.646;23.344;2024-03-25T02:05:07;93323.16;;;3.59;100.00
12219;BME280;6172;42.646;23.344;2024-03-25T02:07:35;93326.44;;;3.40;100.00
12219;BME280;6172;42.646;23.344;2024-03-25T02:10:02;93337.78;;;3.20;100.00
12219;BME280;6172;42.646;23.344;2024-03-25T02:12:31;93333.34;;;3.03;100.00
12219;BME280;6172;42.646;23.344;2024-03-25T02:14:58;93339.44;;;3.07;100.00
12219;BME280;6172;42.646;23.344;2024-03-25T02:17:25;93336.03;;;3.03;100.00
12219;BME280;6172;42.646;23.344;2024-03-25T02:19:51;93339.38;;;2.74;100.00
12219;BME280;6172;42.646;23.344;2024-03-25T02:22:18;93347.22;;;2.47;100.00
12219;BME280;6172;42.646;23.344;2024-03-25T02:24:45;93335.97;;;2.63;100.00
12219;BME280;6172;42.646;23.344;2024-03-25T02:27:14;93326.50;;;2.44;100.00
12219;BME280;6172;42.646;23.344;2024-03-25T02:29:40;93323.00;;;2.51;100.00
12219;BME280;6172;42.646;23.344;2024-03-25T02:32:07;93333.88;;;2.33;100.00
12219;BME280;6172;42.646;23.344;2024-03-25T02:34:36;93347.63;;;2.46;100.00
12219;BME280;6172;42.646;23.344;2024-03-25T02:37:03;93341.53;;;2.38;100.00
12219;BME280;6172;42.646;23.344;2024-03-25T02:39:29;93341.16;;;2.36;100.00
12219;BME280;6172;42.646;23.344;2024-03-25T02:41:57;93339.22;;;2.37;100.00
12219;BME280;6172;42.646;23.344;2024-03-25T02:44:24;93336.94;;;2.35;100.00
12219;BME280;6172;42.646;23.344;2024-03-25T02:46:52;93328.06;;;2.42;100.00
12219;BME280;6172;42.646;23.344;2024-03-25T02:49:18;93335.75;;;2.40;100.00
12219;BME280;6172;42.646;23.344;2024-03-25T02:51:46;93353.00;;;2.46;100.00
12219;BME280;6172;42.646;23.344;2024-03-25T02:54:11;93357.97;;;2.51;100.00
12219;BME280;6172;42.646;23.344;2024-03-25T02:56:39;93356.03;;;2.55;100.00
12219;BME280;6172;42.646;23.344;2024-03-25T02:59:05;93350.53;;;2.69;100.00
12219;BME280;6172;42.646;23.344;2024-03-25T03:01:34;93352.81;;;2.70;100.00
12219;BME280;6172;42.646;23.344;2024-03-25T03:04:00;93368.59;;;2.68;100.00
12219;BME280;6172;42.646;23.344;2024-03-25T03:06:27;93360.59;;;2.58;100.00
12219;BME280;6172;42.646;23.344;2024-03-25T03:08:53;93363.31;;;2.58;100.00
12219;BME280;6172;42.646;23.344;2024-03-25T03:11:20;93367.94;;;2.50;100.00
12219;BME280;6172;42.646;23.344;2024-03-25T03:13:46;93383.25;;;2.60;100.00
12219;BME280;6172;42.646;23.344;2024-03-25T03:16:12;93379.34;;;2.68;100.00
12219;BME280;6172;42.646;23.344;2024-03-25T03:18:40;93372.81;;;2.69;100.00
12219;BME280;6172;42.646;23.344;2024-03-25T03:21:07;93359.47;;;2.55;100.00
12219;BME280;6172;42.646;23.344;2024-03-25T03:23:32;93366.84;;;2.44;100.00
12219;BME280;6172;42.646;23.344;2024-03-25T03:25:59;93361.84;;;2.46;100.00
12219;BME280;6172;42.646;23.344;2024-03-25T03:28:26;93364.81;;;2.62;100.00
12219;BME280;6172;42.646;23.344;2024-03-25T03:30:54;93378.69;;;2.54;100.00
12219;BME280;6172;42.646;23.344;2024-03-25T03:33:20;93379.72;;;2.70;100.00
12219;BME280;6172;42.646;23.344;2024-03-25T03:35:49;93380.06;;;2.79;100.00
12219;BME280;6172;42.646;23.344;2024-03-25T03:38:15;93372.00;;;2.76;100.00
12219;BME280;6172;42.646;23.344;2024-03-25T03:40:42;93378.94;;;2.73;100.00
12219;BME280;6172;42.646;23.344;2024-03-25T03:43:08;93381.22;;;2.75;100.00
12219;BME280;6172;42.646;23.344;2024-03-25T03:45:35;93375.81;;;2.78;100.00
12219;BME280;6172;42.646;23.344;2024-03-25T03:48:01;93374.19;;;2.91;100.00
12219;BME280;6172;42.646;23.344;2024-03-25T03:50:28;93374.19;;;2.91;100.00
12219;BME280;6172;42.646;23.344;2024-03-25T03:52:55;93376.72;;;3.09;100.00
12219;BME280;6172;42.646;23.344;2024-03-25T03:55:22;93366.75;;;3.06;100.00
12219;BME280;6172;42.646;23.344;2024-03-25T03:57:48;93366.00;;;3.05;100.00
12219;BME280;6172;42.646;23.344;2024-03-25T04:00:15;93373.19;;;3.19;100.00
12219;BME280;6172;42.646;23.344;2024-03-25T04:02:41;93384.06;;;3.08;100.00
12219;BME280;6172;42.646;23.344;2024-03-25T04:05:08;93393.78;;;2.95;100.00
12219;BME280;6172;42.646;23.344;2024-03-25T04:07:34;93405.16;;;3.13;100.00
12219;BME280;6172;42.646;23.344;2024-03-25T04:10:03;93409.41;;;3.11;100.00
12219;BME280;6172;42.646;23.344;2024-03-25T04:12:29;93398.25;;;3.12;100.00
12219;BME280;6172;42.646;23.344;2024-03-25T04:14:56;93410.19;;;3.08;100.00
12219;BME280;6172;42.646;23.344;2024-03-25T04:17:22;93414.34;;;3.16;100.00
12219;BME280;6172;42.646;23.344;2024-03-25T04:19:49;93397.13;;;3.06;100.00
12219;BME280;6172;42.646;23.344;2024-03-25T04:22:15;93403.69;;;3.05;100.00
12219;BME280;6172;42.646;23.344;2024-03-25T04:24:42;93404.53;;;2.95;100.00
12219;BME280;6172;42.646;23.344;2024-03-25T04:27:10;93419.13;;;2.98;100.00
12219;BME280;6172;42.646;23.344;2024-03-25T04:29:37;93415.13;;;3.13;100.00
12219;BME280;6172;42.646;23.344;2024-03-25T04:32:03;93419.44;;;3.03;100.00
12219;BME280;6172;42.646;23.344;2024-03-25T04:34:30;93423.31;;;2.99;100.00
12219;BME280;6172;42.646;23.344;2024-03-25T04:36:56;93426.13;;;2.88;100.00
12219;BME280;6172;42.646;23.344;2024-03-25T04:39:23;93443.34;;;2.98;100.00
12219;BME280;6172;42.646;23.344;2024-03-25T04:41:49;93452.59;;;2.90;100.00
12219;BME280;6172;42.646;23.344;2024-03-25T04:44:16;93453.41;;;2.87;100.00
12219;BME280;6172;42.646;23.344;2024-03-25T04:46:42;93462.66;;;2.82;100.00
12219;BME280;6172;42.646;23.344;2024-03-25T04:49:08;93454.09;;;2.94;100.00
12219;BME280;6172;42.646;23.344;2024-03-25T04:51:34;93469.59;;;2.76;100.00
12219;BME280;6172;42.646;23.344;2024-03-25T04:54:00;93473.34;;;2.93;100.00
12219;BME280;6172;42.646;23.344;2024-03-25T04:56:26;93470.25;;;2.94;100.00
12219;BME280;6172;42.646;23.344;2024-03-25T04:58:52;93474.06;;;3.00;100.00
12219;BME280;6172;42.646;23.344;2024-03-25T05:01:19;93472.53;;;2.99;100.00
12219;BME280;6172;42.646;23.344;2024-03-25T05:03:45;93472.19;;;2.94;100.00
12219;BME280;6172;42.646;23.344;2024-03-25T05:06:12;93466.16;;;2.76;100.00
12219;BME280;6172;42.646;23.344;2024-03-25T05:08:38;93469.56;;;2.83;100.00
12219;BME280;6172;42.646;23.344;2024-03-25T05:11:04;93478.38;;;2.91;100.00
12219;BME280;6172;42.646;23.344;2024-03-25T05:13:30;93488.75;;;2.89;100.00
12219;BME280;6172;42.646;23.344;2024-03-25T05:15:55;93476.13;;;2.82;100.00
12219;BME280;6172;42.646;23.344;2024-03-25T05:18:23;93483.72;;;2.94;100.00
12219;BME280;6172;42.646;23.344;2024-03-25T05:20:49;93491.03;;;2.90;100.00
12219;BME280;6172;42.646;23.344;2024-03-25T05:23:15;93484.88;;;2.90;100.00
12219;BME280;6172;42.646;23.344;2024-03-25T05:25:41;93490.94;;;3.04;100.00
12219;BME280;6172;42.646;23.344;2024-03-25T05:28:07;93490.88;;;3.15;100.00
12219;BME280;6172;42.646;23.344;2024-03-25T05:30:33;93498.56;;;3.20;100.00
12219;BME280;6172;42.646;23.344;2024-03-25T05:32:59;93495.50;;;3.14;100.00
12219;BME280;6172;42.646;23.344;2024-03-25T05:35:26;93493.84;;;3.27;100.00
12219;BME280;6172;42.646;23.344;2024-03-25T05:37:52;93499.97;;;3.35;100.00
12219;BME280;6172;42.646;23.344;2024-03-25T05:40:18;93509.72;;;3.18;100.00
12219;BME280;6172;42.646;23.344;2024-03-25T05:42:44;93493.84;;;3.27;100.00
12219;BME280;6172;42.646;23.344;2024-03-25T05:45:11;93500.81;;;3.21;100.00
12219;BME280;6172;42.646;23.344;2024-03-25T05:47:36;93506.91;;;3.33;100.00
12219;BME280;6172;42.646;23.344;2024-03-25T05:50:03;93509.97;;;3.34;100.00
12219;BME280;6172;42.646;23.344;2024-03-25T05:52:30;93510.91;;;3.10;100.00
12219;BME280;6172;42.646;23.344;2024-03-25T05:54:56;93514.06;;;2.98;100.00
12219;BME280;6172;42.646;23.344;2024-03-25T05:57:22;93520.19;;;3.02;100.00
12219;BME280;6172;42.646;23.344;2024-03-25T05:59:48;93520.19;;;2.99;100.00
12219;BME280;6172;42.646;23.344;2024-03-25T06:02:14;93532.88;;;3.02;100.00
12219;BME280;6172;42.646;23.344;2024-03-25T06:04:40;93532.84;;;3.09;100.00
12219;BME280;6172;42.646;23.344;2024-03-25T06:07:06;93533.13;;;3.21;100.00
12219;BME280;6172;42.646;23.344;2024-03-25T06:09:33;93536.25;;;3.20;100.00
12219;BME280;6172;42.646;23.344;2024-03-25T06:11:59;93544.16;;;3.41;100.00
12219;BME280;6172;42.646;23.344;2024-03-25T06:14:25;93547.25;;;3.43;100.00
12219;BME280;6172;42.646;23.344;2024-03-25T06:16:51;93557.63;;;3.37;100.00
12219;BME280;6172;42.646;23.344;2024-03-25T06:19:17;93559.47;;;3.51;100.00
12219;BME280;6172;42.646;23.344;2024-03-25T06:21:43;93560.09;;;3.69;100.00
12219;BME280;6172;42.646;23.344;2024-03-25T06:24:09;93562.00;;;3.76;100.00
12219;BME280;6172;42.646;23.344;2024-03-25T06:26:36;93562.66;;;3.87;100.00
12219;BME280;6172;42.646;23.344;2024-03-25T06:29:02;93565.53;;;4.10;100.00
12219;BME280;6172;42.646;23.344;2024-03-25T06:31:28;93558.06;;;4.65;100.00
12219;BME280;6172;42.646;23.344;2024-03-25T06:34:12;93558.97;;;4.85;100.00
12219;BME280;6172;42.646;23.344;2024-03-25T06:36:43;93562.53;;;5.38;100.00
12219;BME280;6172;42.646;23.344;2024-03-25T06:39:09;93561.66;;;5.72;100.00
12219;BME280;6172;42.646;23.344;2024-03-25T06:41:36;93552.28;;;6.22;100.00
12219;BME280;6172;42.646;23.344;2024-03-25T06:44:02;93554.13;;;7.10;100.00
12219;BME280;6172;42.646;23.344;2024-03-25T06:46:28;93565.91;;;8.07;100.00
12219;BME280;6172;42.646;23.344;2024-03-25T06:48:54;93561.78;;;8.63;100.00
12219;BME280;6172;42.646;23.344;2024-03-25T06:51:20;93581.56;;;8.92;100.00
12219;BME280;6172;42.646;23.344;2024-03-25T06:53:46;93577.66;;;9.34;92.29
12219;BME280;6172;42.646;23.344;2024-03-25T06:56:12;93578.94;;;9.30;89.17
12219;BME280;6172;42.646;23.344;2024-03-25T06:58:39;93572.41;;;10.18;81.34
12219;BME280;6172;42.646;23.344;2024-03-25T07:03:49;93560.16;;;11.38;68.42
12219;BME280;6172;42.646;23.344;2024-03-25T07:06:15;93566.72;;;11.49;59.85
12219;BME280;6172;42.646;23.344;2024-03-25T07:08:41;93575.69;;;12.20;58.27
12219;BME280;6172;42.646;23.344;2024-03-25T07:11:07;93573.44;;;12.27;60.27
12219;BME280;6172;42.646;23.344;2024-03-25T07:13:33;93581.19;;;12.29;58.03
12219;BME280;6172;42.646;23.344;2024-03-25T07:16:00;93580.25;;;11.83;57.60
12219;BME280;6172;42.646;23.344;2024-03-25T07:18:26;93591.00;;;11.78;57.39
12219;BME280;6172;42.646;23.344;2024-03-25T07:20:52;93586.66;;;10.69;61.57
12219;BME280;6172;42.646;23.344;2024-03-25T07:23:18;93601.63;;;9.52;70.65
12219;BME280;6172;42.646;23.344;2024-03-25T07:25:44;93610.78;;;8.88;78.97
12219;BME280;6172;42.646;23.344;2024-03-25T07:28:10;93607.53;;;9.22;81.21
12219;BME280;6172;42.646;23.344;2024-03-25T07:30:36;93616.28;;;8.56;82.52
12219;BME280;6172;42.646;23.344;2024-03-25T07:33:04;93612.03;;;9.00;85.10
12219;BME280;6172;42.646;23.344;2024-03-25T07:35:30;93618.84;;;8.92;81.76
12219;BME280;6172;42.646;23.344;2024-03-25T07:37:56;93613.91;;;9.15;82.39
12219;BME280;6172;42.646;23.344;2024-03-25T07:40:22;93601.47;;;10.09;73.65
12219;BME280;6172;42.646;23.344;2024-03-25T07:42:48;93595.25;;;11.14;66.77
12219;BME280;6172;42.646;23.344;2024-03-25T07:45:14;93601.06;;;11.04;61.93
12219;BME280;6172;42.646;23.344;2024-03-25T07:47:41;93599.72;;;10.40;64.76
12219;BME280;6172;42.646;23.344;2024-03-25T07:50:09;93596.09;;;10.43;64.73
12219;BME280;6172;42.646;23.344;2024-03-25T07:52:35;93599.63;;;10.31;63.80
12219;BME280;6172;42.646;23.344;2024-03-25T07:55:01;93613.34;;;10.27;67.64
12219;BME280;6172;42.646;23.344;2024-03-25T07:57:27;93611.34;;;10.40;64.61
12219;BME280;6172;42.646;23.344;2024-03-25T07:59:52;93606.06;;;11.05;61.53
12219;BME280;6172;42.646;23.344;2024-03-25T08:02:18;93615.78;;;11.40;61.15
12219;BME280;6172;42.646;23.344;2024-03-25T08:04:44;93602.63;;;11.26;60.75
12219;BME280;6172;42.646;23.344;2024-03-25T08:07:11;93609.59;;;11.70;58.02
12219;BME280;6172;42.646;23.344;2024-03-25T08:09:37;93616.13;;;11.51;57.05
12219;BME280;6172;42.646;23.344;2024-03-25T08:12:04;93617.63;;;11.43;57.08
12219;BME280;6172;42.646;23.344;2024-03-25T08:14:30;93603.66;;;11.93;56.18
12219;BME280;6172;42.646;23.344;2024-03-25T08:16:56;93619.19;;;11.75;55.97
12219;BME280;6172;42.646;23.344;2024-03-25T08:19:22;93622.59;;;10.89;59.29
12219;BME280;6172;42.646;23.344;2024-03-25T08:21:48;93620.53;;;10.93;59.69
12219;BME280;6172;42.646;23.344;2024-03-25T08:24:15;93627.16;;;11.26;59.43
12219;BME280;6172;42.646;23.344;2024-03-25T08:26:41;93625.66;;;11.47;59.15
12219;BME280;6172;42.646;23.344;2024-03-25T08:29:07;93606.22;;;11.23;57.23
12219;BME280;6172;42.646;23.344;2024-03-25T08:31:33;93622.63;;;11.11;58.57
12219;BME280;6172;42.646;23.344;2024-03-25T08:33:59;93628.91;;;10.99;58.65
12219;BME280;6172;42.646;23.344;2024-03-25T08:36:25;93620.03;;;10.61;60.98
12219;BME280;6172;42.646;23.344;2024-03-25T08:38:50;93636.44;;;10.23;63.60
12219;BME280;6172;42.646;23.344;2024-03-25T08:41:18;93638.34;;;10.73;63.78
12219;BME280;6172;42.646;23.344;2024-03-25T08:43:44;93631.00;;;10.82;63.92
12219;BME280;6172;42.646;23.344;2024-03-25T08:46:10;93627.00;;;11.08;60.82
12219;BME280;6172;42.646;23.344;2024-03-25T08:48:35;93632.41;;;11.33;57.50
12219;BME280;6172;42.646;23.344;2024-03-25T08:51:01;93634.34;;;10.99;59.62
12219;BME280;6172;42.646;23.344;2024-03-25T08:53:27;93633.59;;;11.20;58.98
12219;BME280;6172;42.646;23.344;2024-03-25T08:55:53;93635.75;;;11.59;55.85
12219;BME280;6172;42.646;23.344;2024-03-25T08:58:21;93631.19;;;11.34;53.61
12219;BME280;6172;42.646;23.344;2024-03-25T09:00:46;93641.38;;;11.64;52.72
12219;BME280;6172;42.646;23.344;2024-03-25T09:03:12;93631.66;;;11.85;53.01
12219;BME280;6172;42.646;23.344;2024-03-25T09:05:38;93637.72;;;11.58;52.86
12219;BME280;6172;42.646;23.344;2024-03-25T09:08:05;93638.59;;;11.34;54.08
12219;BME280;6172;42.646;23.344;2024-03-25T09:10:31;93641.50;;;11.18;54.40
12219;BME280;6172;42.646;23.344;2024-03-25T09:13:15;93655.06;;;10.37;56.51
12219;BME280;6172;42.646;23.344;2024-03-25T09:15:43;93653.75;;;10.29;57.63
12219;BME280;6172;42.646;23.344;2024-03-25T09:18:09;93664.00;;;10.12;59.45
12219;BME280;6172;42.646;23.344;2024-03-25T09:20:35;93662.66;;;9.92;59.78
12219;BME280;6172;42.646;23.344;2024-03-25T09:23:00;93674.72;;;9.91;64.31
12219;BME280;6172;42.646;23.344;2024-03-25T09:25:26;93671.81;;;9.98;62.95
12219;BME280;6172;42.646;23.344;2024-03-25T09:27:52;93667.03;;;10.14;62.26
12219;BME280;6172;42.646;23.344;2024-03-25T09:30:18;93672.03;;;10.16;59.30
12219;BME280;6172;42.646;23.344;2024-03-25T09:32:46;93670.44;;;9.90;59.89
12219;BME280;6172;42.646;23.344;2024-03-25T09:35:12;93680.44;;;9.68;62.06
12219;BME280;6172;42.646;23.344;2024-03-25T09:37:38;93676.72;;;9.05;65.98
12219;BME280;6172;42.646;23.344;2024-03-25T09:40:05;93682.22;;;9.46;67.84
12219;BME280;6172;42.646;23.344;2024-03-25T09:42:34;93679.47;;;9.74;65.26
12219;BME280;6172;42.646;23.344;2024-03-25T09:45:00;93674.56;;;9.69;64.40
12219;BME280;6172;42.646;23.344;2024-03-25T09:47:27;93685.75;;;10.00;62.02
12219;BME280;6172;42.646;23.344;2024-03-25T09:49:54;93665.91;;;9.87;59.25
12219;BME280;6172;42.646;23.344;2024-03-25T09:52:21;93674.50;;;9.16;61.79
12219;BME280;6172;42.646;23.344;2024-03-25T09:54:47;93671.50;;;9.26;64.56
12219;BME280;6172;42.646;23.344;2024-03-25T09:57:14;93672.41;;;9.36;65.52
12219;BME280;6172;42.646;23.344;2024-03-25T09:59:40;93680.13;;;9.78;65.71
12219;BME280;6172;42.646;23.344;2024-03-25T10:02:06;93683.00;;;10.00;65.39
12219;BME280;6172;42.646;23.344;2024-03-25T10:04:38;93681.50;;;9.99;61.80
12219;BME280;6172;42.646;23.344;2024-03-25T10:07:08;93672.03;;;10.03;59.63
12219;BME280;6172;42.646;23.344;2024-03-25T10:09:34;93682.31;;;9.83;59.81
12219;BME280;6172;42.646;23.344;2024-03-25T10:12:00;93683.84;;;9.84;60.26
12219;BME280;6172;42.646;23.344;2024-03-25T10:14:27;93683.00;;;10.00;61.15
12219;BME280;6172;42.646;23.344;2024-03-25T10:16:53;93682.06;;;10.06;62.33
12219;BME280;6172;42.646;23.344;2024-03-25T10:19:19;93683.69;;;10.29;61.20
12219;BME280;6172;42.646;23.344;2024-03-25T10:21:45;93684.88;;;10.53;56.97
12219;BME280;6172;42.646;23.344;2024-03-25T10:24:16;93689.81;;;10.46;56.82
12219;BME280;6172;42.646;23.344;2024-03-25T10:26:42;93679.44;;;10.66;57.96
12219;BME280;6172;42.646;23.344;2024-03-25T10:29:08;93686.50;;;10.88;55.12
12219;BME280;6172;42.646;23.344;2024-03-25T10:31:34;93675.91;;;10.90;53.73
12219;BME280;6172;42.646;23.344;2024-03-25T10:34:00;93690.81;;;10.98;52.95
12219;BME280;6172;42.646;23.344;2024-03-25T10:36:26;93680.50;;;10.81;52.58
12219;BME280;6172;42.646;23.344;2024-03-25T10:38:55;93696.69;;;10.50;52.63
12219;BME280;6172;42.646;23.344;2024-03-25T10:41:22;93675.09;;;11.02;51.93
12219;BME280;6172;42.646;23.344;2024-03-25T10:43:49;93694.19;;;11.15;48.89
12219;BME280;6172;42.646;23.344;2024-03-25T10:46:18;93686.88;;;10.53;49.15
12219;BME280;6172;42.646;23.344;2024-03-25T10:48:48;93673.97;;;10.78;49.46
12219;BME280;6172;42.646;23.344;2024-03-25T10:51:21;93679.78;;;10.30;49.12
12219;BME280;6172;42.646;23.344;2024-03-25T10:53:48;93671.66;;;9.89;50.25
12219;BME280;6172;42.646;23.344;2024-03-25T10:56:16;93679.09;;;9.60;50.22
12219;BME280;6172;42.646;23.344;2024-03-25T10:58:43;93672.81;;;10.04;50.94
12219;BME280;6172;42.646;23.344;2024-03-25T11:01:10;93680.22;;;10.16;50.80
12219;BME280;6172;42.646;23.344;2024-03-25T11:03:37;93669.00;;;10.52;48.78
12219;BME280;6172;42.646;23.344;2024-03-25T11:06:03;93673.69;;;10.98;47.16
12219;BME280;6172;42.646;23.344;2024-03-25T11:08:31;93684.59;;;10.38;44.32
12219;BME280;6172;42.646;23.344;2024-03-25T11:10:57;93687.25;;;9.60;46.45
12219;BME280;6172;42.646;23.344;2024-03-25T11:13:23;93683.28;;;10.18;48.09
12219;BME280;6172;42.646;23.344;2024-03-25T11:15:54;93662.63;;;10.80;49.29
12219;BME280;6172;42.646;23.344;2024-03-25T11:18:23;93677.66;;;10.84;48.79
12219;BME280;6172;42.646;23.344;2024-03-25T11:20:59;93671.06;;;11.07;48.37
12219;BME280;6172;42.646;23.344;2024-03-25T11:23:26;93667.31;;;10.92;47.95
12219;BME280;6172;42.646;23.344;2024-03-25T11:25:55;93678.13;;;10.70;48.85
12219;BME280;6172;42.646;23.344;2024-03-25T11:28:27;93660.00;;;10.76;48.95
12219;BME280;6172;42.646;23.344;2024-03-25T11:30:55;93676.78;;;10.87;49.01
12219;BME280;6172;42.646;23.344;2024-03-25T11:33:21;93678.66;;;10.90;49.53
12219;BME280;6172;42.646;23.344;2024-03-25T11:35:48;93690.66;;;10.17;53.12
12219;BME280;6172;42.646;23.344;2024-03-25T11:38:14;93697.22;;;9.79;56.68
12219;BME280;6172;42.646;23.344;2024-03-25T11:40:43;93695.91;;;9.71;57.35
12219;BME280;6172;42.646;23.344;2024-03-25T11:43:09;93696.00;;;9.67;56.82
12219;BME280;6172;42.646;23.344;2024-03-25T11:45:36;93705.41;;;9.50;56.91
12219;BME280;6172;42.646;23.344;2024-03-25T11:48:04;93702.50;;;9.57;57.37
12219;BME280;6172;42.646;23.344;2024-03-25T11:50:31;93706.03;;;9.83;58.39
12219;BME280;6172;42.646;23.344;2024-03-25T11:53:00;93704.19;;;10.33;57.39
12219;BME280;6172;42.646;23.344;2024-03-25T11:55:28;93694.91;;;10.56;56.74
12219;BME280;6172;42.646;23.344;2024-03-25T11:57:55;93693.34;;;10.93;56.13
12219;BME280;6172;42.646;23.344;2024-03-25T12:00:21;93694.31;;;10.99;54.38
12219;BME280;6172;42.646;23.344;2024-03-25T12:02:47;93702.13;;;10.50;55.71
12219;BME280;6172;42.646;23.344;2024-03-25T12:05:15;93692.63;;;10.67;56.90
12219;BME280;6172;42.646;23.344;2024-03-25T12:07:41;93697.97;;;10.83;56.61
12219;BME280;6172;42.646;23.344;2024-03-25T12:10:07;93692.19;;;10.56;55.66
12219;BME280;6172;42.646;23.344;2024-03-25T12:12:52;93686.97;;;10.49;53.89
12219;BME280;6172;42.646;23.344;2024-03-25T12:15:18;93687.69;;;10.87;53.47
12219;BME280;6172;42.646;23.344;2024-03-25T12:17:44;93687.59;;;10.78;53.16
12219;BME280;6172;42.646;23.344;2024-03-25T12:20:11;93698.38;;;10.69;51.68
12219;BME280;6172;42.646;23.344;2024-03-25T12:22:38;93684.13;;;10.15;51.39
12219;BME280;6172;42.646;23.344;2024-03-25T12:25:07;93703.41;;;9.38;53.94
12219;BME280;6172;42.646;23.344;2024-03-25T12:27:34;93701.22;;;9.62;56.75
12219;BME280;6172;42.646;23.344;2024-03-25T12:30:01;93695.03;;;9.74;55.92
12219;BME280;6172;42.646;23.344;2024-03-25T12:32:35;93700.50;;;9.74;54.90
12219;BME280;6172;42.646;23.344;2024-03-25T12:35:01;93688.97;;;9.82;54.25
12219;BME280;6172;42.646;23.344;2024-03-25T12:37:28;93697.53;;;9.97;53.00
12219;BME280;6172;42.646;23.344;2024-03-25T12:39:55;93709.91;;;9.98;52.44
12219;BME280;6172;42.646;23.344;2024-03-25T12:42:22;93712.31;;;9.96;52.10
12219;BME280;6172;42.646;23.344;2024-03-25T12:44:48;93714.59;;;10.10;51.49
12219;BME280;6172;42.646;23.344;2024-03-25T12:47:14;93708.94;;;10.04;51.34
12219;BME280;6172;42.646;23.344;2024-03-25T12:49:40;93701.56;;;10.05;52.23
12219;BME280;6172;42.646;23.344;2024-03-25T12:52:06;93712.78;;;10.07;51.62
12219;BME280;6172;42.646;23.344;2024-03-25T12:54:32;93716.88;;;9.99;52.21
12219;BME280;6172;42.646;23.344;2024-03-25T12:57:00;93710.06;;;10.07;51.24
12219;BME280;6172;42.646;23.344;2024-03-25T12:59:26;93715.25;;;10.01;51.20
12219;BME280;6172;42.646;23.344;2024-03-25T13:01:52;93717.75;;;9.67;50.19
12219;BME280;6172;42.646;23.344;2024-03-25T13:04:18;93720.31;;;9.30;51.16